Time;durP1;ratioP1;P1;durP2;ratioP2;P2;SDS_P1;SDS_P2;PMS_P1;PMS_P2;Temp;Humidity;BMP_temperature;BMP_pressure;BME280_temperature;BME280_humidity;BME280_pressure;Samples;Min_cycle;Max_cycle;Signal;HPM_P1;HPM_P2
2021/11/13 00:01:37;;;;;;;19.90;8.32;;;;;;;5.63;98.69;97982.81;5038939;28;20619;-59
2021/11/13 00:04:03;;;;;;;19.92;9.60;;;;;;;5.56;97.53;97974.34;5039384;28;20518;-59
2021/11/13 00:06:28;;;;;;;22.52;10.25;;;;;;;5.80;96.50;97965.19;5037624;28;20037;-59
2021/11/13 00:08:53;;;;;;;23.38;10.75;;;;;;;5.54;95.43;97963.16;5040257;28;20032;-59
2021/11/13 00:11:19;;;;;;;24.02;10.55;;;;;;;5.25;96.98;97960.34;5039061;28;20041;-58
2021/11/13 00:13:51;;;;;;;20.20;9.73;;;;;;;5.82;97.16;97970.31;5040948;28;20013;-58
2021/11/13 00:16:17;;;;;;;;;;;;;;;5.39;97.25;97963.50;5041830;28;20033;-59
2021/11/13 00:18:42;;;;;;;18.83;9.90;;;;;;;5.34;96.25;97970.50;5041649;28;19917;-58
2021/11/13 00:21:07;;;;;;;22.35;10.30;;;;;;;5.56;96.06;97968.31;5041154;28;20048;-59
2021/11/13 00:23:33;;;;;;;26.02;11.70;;;;;;;5.30;97.64;97966.28;5041506;28;20487;-59
2021/11/13 00:25:59;;;;;;;23.90;10.95;;;;;;;5.65;95.31;97965.53;5041756;28;20708;-59
2021/11/13 00:28:26;;;;;;;23.48;10.73;;;;;;;5.43;99.05;97962.53;5039281;28;20112;-57
2021/11/13 00:30:51;;;;;;;28.33;11.48;;;;;;;5.18;96.14;97964.78;5037071;28;20103;-58
2021/11/13 00:33:17;;;;;;;22.50;10.32;;;;;;;5.87;97.25;97963.31;5039760;28;20021;-57
2021/11/13 00:35:43;;;;;;;26.08;10.90;;;;;;;5.82;94.30;97965.16;5041474;28;20044;-59
2021/11/13 00:38:08;;;;;;;25.15;12.02;;;;;;;5.43;97.38;97969.47;5042083;28;20106;-57
2021/11/13 00:40:35;;;;;;;25.55;11.73;;;;;;;5.26;96.30;97959.47;5040989;28;20041;-57
2021/11/13 00:43:00;;;;;;;23.38;10.20;;;;;;;5.35;95.14;97959.28;5041930;28;20035;-58
2021/11/13 00:45:25;;;;;;;27.08;12.13;;;;;;;5.45;95.90;97957.34;5041774;28;20045;-57
2021/11/13 00:47:51;;;;;;;25.67;11.60;;;;;;;5.37;99.89;97960.94;5042061;28;20514;-58
2021/11/13 00:50:16;;;;;;;25.83;11.80;;;;;;;5.11;97.82;97965.78;5041236;28;20021;-57
2021/11/13 00:52:42;;;;;;;26.40;12.15;;;;;;;5.51;99.42;97965.81;5041417;28;20547;-59
2021/11/13 00:55:10;;;;;;;28.52;12.05;;;;;;;4.94;97.86;97963.53;5040188;28;20649;-59
2021/11/13 00:57:35;;;;;;;26.13;11.65;;;;;;;5.26;98.91;97964.66;5039415;28;20079;-57
2021/11/13 01:00:04;;;;;;;27.42;11.73;;;;;;;5.29;99.71;97964.56;5039307;28;20024;-59
2021/11/13 01:02:29;;;;;;;27.88;12.27;;;;;;;5.03;98.69;97965.94;5039257;28;20048;-59
2021/11/13 01:04:55;;;;;;;32.20;13.18;;;;;;;5.45;95.92;97972.88;5041832;28;20025;-59
2021/11/13 01:07:20;;;;;;;27.75;11.45;;;;;;;4.91;100.00;97966.19;5041297;28;20589;-57
2021/11/13 01:09:45;;;;;;;29.98;12.13;;;;;;;5.41;99.38;97970.34;5041975;28;20032;-57
2021/11/13 01:12:11;;;;;;;28.33;11.50;;;;;;;5.63;97.64;97974.22;5040325;28;20033;-57
2021/11/13 01:14:40;;;;;;;31.33;12.48;;;;;;;5.58;99.48;97969.97;5041682;28;20032;-58
2021/11/13 01:17:10;;;;;;;36.00;13.38;;;;;;;5.11;99.78;97970.94;5043021;28;20029;-59
2021/11/13 01:19:37;;;;;;;33.33;14.30;;;;;;;5.50;97.47;97966.72;5043818;28;20110;-59
2021/11/13 01:22:03;;;;;;;33.95;13.18;;;;;;;5.62;96.34;97975.94;5042972;28;20515;-60
2021/11/13 01:24:28;;;;;;;40.90;14.15;;;;;;;5.50;96.38;97971.88;5043955;28;20044;-58
2021/11/13 01:26:54;;;;;;;31.70;13.60;;;;;;;5.39;97.42;97973.84;5042574;28;20040;-56
2021/11/13 01:29:19;;;;;;;30.95;13.15;;;;;;;5.41;98.47;97972.06;5040320;28;20075;-59
2021/11/13 01:31:44;;;;;;;26.25;10.95;;;;;;;5.65;98.04;97980.22;5040815;28;20128;-57
2021/11/13 01:34:10;;;;;;;32.05;13.00;;;;;;;5.84;94.83;97976.31;5042293;28;20035;-59
2021/11/13 01:36:35;;;;;;;35.33;13.75;;;;;;;5.39;97.45;97987.63;5043187;28;20037;-58
2021/11/13 01:39:00;;;;;;;32.90;12.88;;;;;;;5.23;98.70;97983.63;5044154;28;20039;-59
2021/11/13 01:41:26;;;;;;;38.47;14.52;;;;;;;5.37;97.50;97985.97;5042723;28;20045;-58
2021/11/13 01:43:52;;;;;;;31.55;13.10;;;;;;;5.63;96.89;97982.81;5043749;28;20039;-59
2021/11/13 01:46:18;;;;;;;33.13;13.25;;;;;;;5.60;95.98;97973.38;5043684;28;20032;-58
2021/11/13 01:48:43;;;;;;;20.40;9.02;;;;;;;5.86;98.39;97978.88;5043480;28;20032;-59
2021/11/13 01:51:28;;;;;;;31.20;12.38;;;;;;;5.24;100.00;97963.78;5041863;28;20052;-57
2021/11/13 01:53:55;;;;;;;22.65;10.95;;;;;;;5.05;99.58;97964.16;5043488;28;20028;-58
2021/11/13 01:56:22;;;;;;;27.90;12.57;;;;;;;5.34;100.00;97963.59;5043037;28;20132;-58
2021/11/13 01:58:53;;;;;;;28.23;12.10;;;;;;;5.11;100.00;97958.88;5039717;28;20056;-60
2021/11/13 02:01:19;;;;;;;26.17;11.85;;;;;;;5.11;99.13;97943.38;5038708;28;20705;-59
2021/11/13 02:03:46;;;;;;;24.00;11.05;;;;;;;5.50;99.04;97940.84;5042641;28;20037;-59
2021/11/13 02:06:13;;;;;;;23.80;10.20;;;;;;;5.44;100.00;97943.56;5043133;28;20547;-59
2021/11/13 02:08:41;;;;;;;26.23;11.38;;;;;;;5.39;100.00;97937.63;5043052;28;20021;-58
2021/11/13 02:11:06;;;;;;;25.80;11.05;;;;;;;5.34;100.00;97934.28;5041481;28;20029;-59
2021/11/13 02:13:32;;;;;;;23.92;10.45;;;;;;;5.42;100.00;97937.56;5043226;28;20544;-56
2021/11/13 02:15:57;;;;;;;24.92;11.68;;;;;;;5.54;99.42;97942.47;5042397;28;20047;-58
2021/11/13 02:18:22;;;;;;;25.95;11.88;;;;;;;5.22;99.52;97943.16;5043122;28;20859;-59
2021/11/13 02:20:48;;;;;;;25.55;11.35;;;;;;;5.46;97.46;97946.97;5041501;28;20060;-60
2021/11/13 02:23:20;;;;;;;25.75;11.45;;;;;;;5.07;99.82;97952.06;5043303;28;20059;-59
2021/11/13 02:25:47;;;;;;;23.45;11.70;;;;;;;5.33;98.80;97946.38;5042766;28;20025;-58
2021/11/13 02:28:19;;;;;;;27.98;10.70;;;;;;;5.81;96.00;97945.34;5037688;28;20033;-58
2021/11/13 02:30:46;;;;;;;24.08;10.63;;;;;;;5.25;100.00;97948.25;5039064;28;20033;-56
2021/11/13 02:33:11;;;;;;;24.63;10.35;;;;;;;5.55;99.39;97949.34;5042861;28;20025;-59
2021/11/13 02:35:38;;;;;;;24.00;11.20;;;;;;;5.23;100.00;97950.03;5042130;28;20118;-57
2021/11/13 02:38:18;;;;;;;21.77;9.93;;;;;;;5.38;99.50;97952.28;5042962;28;20036;-58
2021/11/13 02:40:49;;;;;;;20.90;9.68;;;;;;;5.58;99.90;97953.59;5041341;28;20047;-59
2021/11/13 02:43:16;;;;;;;20.23;9.90;;;;;;;5.67;95.75;97953.41;5042214;28;20064;-58
2021/11/13 02:45:43;;;;;;;18.38;8.75;;;;;;;6.07;97.42;97956.88;5041865;28;20064;-58
2021/11/13 02:48:09;;;;;;;22.42;9.18;;;;;;;6.15;92.53;97965.28;5042491;28;20021;-57
2021/11/13 02:50:36;;;;;;;17.52;9.07;;;;;;;5.62;96.95;97949.22;5040864;28;20045;-58
2021/11/13 02:53:04;;;;;;;18.50;9.10;;;;;;;5.66;96.00;97958.59;5042693;28;20047;-58
2021/11/13 02:55:30;;;;;;;19.85;9.02;;;;;;;5.33;96.75;97968.78;5041800;28;20041;-57
2021/11/13 02:57:56;;;;;;;16.38;8.43;;;;;;;5.79;94.74;97967.81;5040282;28;20021;-57
2021/11/13 03:00:25;;;;;;;18.83;9.13;;;;;;;5.56;94.56;97966.56;5037929;28;20926;-59
2021/11/13 03:02:51;;;;;;;17.55;8.65;;;;;;;5.28;95.31;97960.28;5039592;28;20017;-59
2021/11/13 03:05:21;;;;;;;18.35;9.23;;;;;;;5.67;96.41;97968.09;5041124;28;20024;-58
2021/11/13 03:07:46;;;;;;;18.80;9.75;;;;;;;5.87;91.92;97968.50;5042116;28;20033;-58
2021/11/13 03:10:15;;;;;;;17.58;9.20;;;;;;;5.57;93.80;97976.03;5041029;28;20012;-58
2021/11/13 03:12:43;;;;;;;17.42;8.45;;;;;;;5.65;94.41;97964.69;5042051;28;20043;-58
2021/11/13 03:15:11;;;;;;;16.00;8.70;;;;;;;5.73;92.94;97966.19;5041594;28;20025;-59
2021/11/13 03:17:37;;;;;;;15.50;8.55;;;;;;;5.68;93.11;97962.88;5041920;28;20108;-57
2021/11/13 03:20:07;;;;;;;15.32;8.20;;;;;;;5.55;92.89;97962.28;5041116;28;20067;-58
2021/11/13 03:22:34;;;;;;;16.20;8.48;;;;;;;5.66;94.86;97966.38;5040765;28;20040;-59
2021/11/13 03:24:59;;;;;;;15.27;8.07;;;;;;;5.82;92.23;97965.16;5041971;28;20023;-59
2021/11/13 03:27:25;;;;;;;15.25;8.40;;;;;;;6.03;90.25;97961.28;5039430;28;20049;-59
2021/11/13 03:29:55;;;;;;;14.25;8.00;;;;;;;6.14;92.90;97964.44;5038328;28;20024;-59
2021/11/13 03:32:20;;;;;;;15.18;8.10;;;;;;;5.87;92.57;97960.72;5037966;28;20442;-59
2021/11/13 03:34:45;;;;;;;16.58;8.10;;;;;;;6.02;95.21;97966.47;5042064;28;20727;-59
2021/11/13 03:37:13;;;;;;;13.85;7.95;;;;;;;5.68;91.84;97962.00;5039430;28;20029;-57
2021/11/13 03:39:38;;;;;;;14.80;7.82;;;;;;;5.84;92.45;97955.59;5040581;28;20900;-59
2021/11/13 03:42:04;;;;;;;15.23;8.35;;;;;;;5.06;94.67;97955.53;5040381;28;20052;-60
2021/11/13 03:44:29;;;;;;;15.52;7.97;;;;;;;5.60;92.95;97950.09;5041532;28;20033;-59
2021/11/13 03:46:55;;;;;;;14.27;7.80;;;;;;;5.29;94.64;97957.66;5040916;28;20678;-59
2021/11/13 03:49:20;;;;;;;13.82;7.80;;;;;;;5.56;92.88;97960.56;5041664;28;20177;-58
2021/11/13 03:51:45;;;;;;;14.88;8.10;;;;;;;5.58;90.68;97964.78;5039490;28;20037;-59
2021/11/13 03:54:11;;;;;;;14.43;7.65;;;;;;;5.54;90.97;97962.31;5041405;28;20017;-57
2021/11/13 03:56:36;;;;;;;13.02;7.03;;;;;;;6.01;92.86;97962.16;5040167;28;20083;-59
2021/11/13 03:59:05;;;;;;;14.52;7.50;;;;;;;5.65;88.80;97969.84;5038524;28;20079;-57
2021/11/13 04:01:31;;;;;;;16.27;8.25;;;;;;;5.77;90.68;97959.22;5038029;28;20600;-59
2021/11/13 04:03:57;;;;;;;15.00;7.80;;;;;;;5.35;89.58;97964.47;5040959;28;20117;-59
2021/11/13 04:06:22;;;;;;;14.60;7.32;;;;;;;5.58;91.49;97963.94;5040475;28;20131;-59
2021/11/13 04:08:47;;;;;;;13.70;7.35;;;;;;;5.66;89.96;97962.06;5041351;28;20787;-59
2021/11/13 04:11:13;;;;;;;14.27;7.25;;;;;;;6.15;92.29;97971.31;5038459;28;20499;-58
2021/11/13 04:13:38;;;;;;;13.02;7.22;;;;;;;5.88;88.74;97967.63;5040793;28;20835;-58
2021/11/13 04:16:04;;;;;;;16.65;8.23;;;;;;;6.07;88.09;97970.66;5040694;28;20140;-59
2021/11/13 04:18:29;;;;;;;14.98;8.68;;;;;;;5.92;88.91;97963.22;5040833;28;21149;-59
2021/11/13 04:20:54;;;;;;;14.13;7.40;;;;;;;5.75;88.36;97966.16;5039179;28;20048;-59
2021/11/13 04:23:20;;;;;;;12.98;7.20;;;;;;;6.04;88.76;97947.41;5040853;28;20032;-59
2021/11/13 04:25:45;;;;;;;13.43;7.40;;;;;;;5.69;87.04;97948.19;5040332;28;20041;-58
2021/11/13 04:28:10;;;;;;;12.02;6.47;;;;;;;5.94;91.36;97946.75;5038048;28;20025;-59
2021/11/13 04:30:36;;;;;;;17.70;7.80;;;;;;;5.66;89.88;97945.66;5038358;28;20036;-60
2021/11/13 04:33:01;;;;;;;15.23;7.43;;;;;;;5.58;88.92;97951.84;5038735;28;20017;-56
2021/11/13 04:37:58;;;;;;;17.40;8.23;;;;;;;5.65;88.85;97941.41;5017903;28;20140;-58
2021/11/13 04:40:33;;;;;;;14.20;7.75;;;;;;;5.34;90.01;97929.97;5016986;28;20033;-59
2021/11/13 04:42:58;;;;;;;15.27;7.57;;;;;;;5.58;90.08;97938.91;5040610;28;20162;-59
2021/11/13 04:45:24;;;;;;;14.25;7.40;;;;;;;5.62;89.00;97938.88;5039127;28;20187;-59
2021/11/13 04:47:50;;;;;;;13.43;7.63;;;;;;;5.52;90.09;97933.91;5040418;28;20031;-59
2021/11/13 04:50:18;;;;;;;15.45;8.20;;;;;;;5.39;90.09;97927.28;5038918;28;20036;-57
2021/11/13 04:52:45;;;;;;;12.02;7.00;;;;;;;5.74;90.58;97929.09;5039998;28;20033;-59
2021/11/13 04:55:11;;;;;;;13.75;7.50;;;;;;;5.34;89.13;97934.28;5039647;28;20043;-58
2021/11/13 04:57:37;;;;;;;13.75;7.55;;;;;;;5.29;90.34;97930.94;5037978;28;20170;-58
2021/11/13 05:00:05;;;;;;;14.18;7.72;;;;;;;5.06;89.68;97924.50;5037521;28;20029;-58
2021/11/13 05:02:31;;;;;;;14.07;7.95;;;;;;;4.98;90.54;97923.81;5037101;28;20406;-59
2021/11/13 05:04:56;;;;;;;15.25;7.93;;;;;;;5.21;91.67;97921.59;5040272;28;20788;-58
2021/11/13 05:07:23;;;;;;;16.55;7.88;;;;;;;5.11;91.48;97912.34;5024479;28;20380;-57
2021/11/13 05:09:48;;;;;;;16.08;7.68;;;;;;;5.03;92.33;97903.88;5020602;28;20055;-58
2021/11/13 05:12:14;;;;;;;16.00;7.80;;;;;;;4.64;94.18;97904.63;5037092;28;20399;-57
2021/11/13 05:14:39;;;;;;;15.20;8.38;;;;;;;4.50;93.57;97903.19;5040314;28;20047;-58
2021/11/13 05:17:04;;;;;;;15.77;7.63;;;;;;;4.22;96.79;97895.94;5038579;28;20144;-57
2021/11/13 05:19:30;;;;;;;14.82;7.47;;;;;;;4.56;94.89;97882.44;5036738;28;20120;-58
2021/11/13 05:21:55;;;;;;;14.55;7.53;;;;;;;4.82;95.38;97882.75;5038345;28;20037;-60
2021/11/13 05:24:20;;;;;;;14.05;6.85;;;;;;;4.91;97.79;97891.22;5039954;28;20561;-59
2021/11/13 05:26:46;;;;;;;14.15;7.20;;;;;;;4.90;96.36;97900.69;5039998;28;20061;-59
2021/11/13 05:29:11;;;;;;;12.63;7.07;;;;;;;5.00;94.68;97893.63;5040346;28;20025;-59
2021/11/13 05:31:37;;;;;;;13.70;6.88;;;;;;;5.20;93.00;97885.44;5039022;28;20111;-57
2021/11/13 05:34:02;;;;;;;14.80;7.63;;;;;;;5.14;93.33;97889.00;5040141;28;20017;-58
2021/11/13 05:36:27;;;;;;;13.77;7.15;;;;;;;5.32;92.46;97881.75;5040026;28;20041;-57
2021/11/13 05:38:53;;;;;;;13.15;7.07;;;;;;;4.78;94.78;97888.88;5039772;28;20032;-59
2021/11/13 05:41:18;;;;;;;13.60;6.60;;;;;;;4.51;95.07;97892.00;5036994;28;20033;-58
2021/11/13 05:43:43;;;;;;;12.95;6.47;;;;;;;4.75;94.65;97882.91;5039890;28;20029;-58
2021/11/13 05:46:09;;;;;;;13.63;6.57;;;;;;;4.98;94.07;97885.91;5039986;28;20075;-58
2021/11/13 05:48:34;;;;;;;14.18;7.38;;;;;;;5.01;91.10;97892.72;5036836;28;20029;-59
2021/11/13 05:51:00;;;;;;;13.35;6.95;;;;;;;4.76;94.20;97889.78;5036304;28;20586;-59
2021/11/13 05:53:25;;;;;;;13.45;6.32;;;;;;;5.09;92.29;97892.56;5038996;28;20021;-57
2021/11/13 05:55:51;;;;;;;13.50;7.18;;;;;;;4.81;92.75;97893.97;5039693;28;20098;-59
2021/11/13 05:58:18;;;;;;;13.70;7.20;;;;;;;4.68;92.26;97902.00;5040218;28;20021;-59
2021/11/13 06:00:45;;;;;;;14.90;6.80;;;;;;;4.89;92.71;97903.31;5038100;28;20152;-56
2021/11/13 06:03:10;;;;;;;12.32;6.22;;;;;;;5.15;92.11;97906.22;5042629;28;20021;-59
2021/11/13 06:05:35;;;;;;;12.73;6.30;;;;;;;4.66;94.11;97904.59;5043372;28;20047;-59
2021/11/13 06:08:01;;;;;;;11.75;6.15;;;;;;;5.05;91.22;97917.63;5044467;28;20056;-57
2021/11/13 06:10:26;;;;;;;11.80;7.18;;;;;;;4.75;91.78;97913.94;5042042;28;20438;-57
2021/11/13 06:12:52;;;;;;;14.18;6.72;;;;;;;4.72;94.44;97919.97;5043251;28;20066;-59
2021/11/13 06:15:17;;;;;;;12.77;6.35;;;;;;;4.44;93.39;97920.50;5042691;28;20040;-59
2021/11/13 06:17:42;;;;;;;14.10;7.45;;;;;;;4.66;93.36;97933.03;5040375;28;20029;-57
2021/11/13 06:20:09;;;;;;;15.00;7.18;;;;;;;5.08;91.62;97933.09;5038723;28;20029;-57
2021/11/13 06:22:35;;;;;;;13.50;6.90;;;;;;;5.53;91.34;97935.63;5042351;28;20162;-59
2021/11/13 06:25:00;;;;;;;13.60;7.13;;;;;;;5.12;91.33;97942.47;5042726;28;20106;-59
2021/11/13 06:27:26;;;;;;;12.32;6.72;;;;;;;5.31;91.06;97945.56;5042870;28;20931;-58
2021/11/13 06:29:51;;;;;;;13.25;6.90;;;;;;;5.22;91.75;97956.94;5042425;28;20025;-59
2021/11/13 06:32:17;;;;;;;14.13;6.97;;;;;;;5.30;90.44;97954.19;5042029;28;20037;-60
2021/11/13 06:34:43;;;;;;;13.02;6.53;;;;;;;5.00;90.52;97966.00;5042734;28;20123;-60
2021/11/13 06:37:09;;;;;;;13.23;7.07;;;;;;;5.63;87.20;97971.63;5042697;28;20140;-59
2021/11/13 06:39:35;;;;;;;13.35;7.03;;;;;;;5.17;92.02;97976.84;5042239;28;20024;-59
2021/11/13 06:42:02;;;;;;;13.57;7.25;;;;;;;5.39;89.20;97979.03;5038916;28;20032;-59
2021/11/13 06:44:27;;;;;;;11.80;6.95;;;;;;;5.60;89.75;97983.72;5041326;28;20036;-59
2021/11/13 06:46:53;;;;;;;14.82;7.70;;;;;;;5.21;90.22;97975.91;5041084;28;20130;-59
2021/11/13 06:49:19;;;;;;;13.23;7.15;;;;;;;5.56;88.86;97982.09;5041166;28;20025;-60
2021/11/13 06:51:45;;;;;;;14.32;7.50;;;;;;;5.63;89.97;97979.41;5041272;28;20044;-59
2021/11/13 06:54:12;;;;;;;12.68;6.88;;;;;;;5.19;90.90;97987.19;5043067;28;20128;-59
2021/11/13 06:56:39;;;;;;;13.30;7.05;;;;;;;5.11;88.47;97995.09;5041945;28;20037;-58
2021/11/13 06:59:04;;;;;;;11.70;6.70;;;;;;;5.33;90.04;98005.88;5042754;28;20021;-57
2021/11/13 07:01:29;;;;;;;12.82;7.00;;;;;;;4.96;91.32;98003.13;5041011;28;20048;-58
2021/11/13 07:03:55;;;;;;;13.63;6.82;;;;;;;5.17;92.39;98004.47;5042574;28;20104;-59
2021/11/13 07:06:20;;;;;;;10.68;6.07;;;;;;;5.93;87.98;98004.59;5040686;28;20037;-58
2021/11/13 07:08:45;;;;;;;12.13;7.30;;;;;;;5.61;90.33;97997.53;5042711;28;20529;-57
2021/11/13 07:11:11;;;;;;;14.52;7.55;;;;;;;5.39;89.83;97994.53;5040691;28;20041;-57
2021/11/13 07:13:36;;;;;;;14.73;7.53;;;;;;;5.25;91.28;98004.31;5041533;28;20020;-58
2021/11/13 07:16:03;;;;;;;11.73;6.78;;;;;;;5.86;90.20;97995.25;5040535;28;20045;-59
2021/11/13 07:18:28;;;;;;;14.68;8.48;;;;;;;5.43;90.02;97985.81;5040753;28;20071;-59
2021/11/13 07:21:01;;;;;;;12.02;7.13;;;;;;;5.55;89.29;97984.72;5040448;28;20498;-58
2021/11/13 07:23:30;;;;;;;13.88;7.30;;;;;;;5.50;89.65;97974.47;5042110;28;20667;-60
2021/11/13 07:25:57;;;;;;;12.00;7.05;;;;;;;4.87;90.29;97991.22;5041338;28;20127;-58
2021/11/13 07:28:34;;;;;;;15.50;8.60;;;;;;;5.58;88.42;97977.72;5042005;28;20399;-59
2021/11/13 07:31:00;;;;;;;12.45;6.97;;;;;;;5.40;89.54;97965.19;5040156;28;20064;-59
2021/11/13 07:33:25;;;;;;;12.65;7.10;;;;;;;5.50;88.95;97966.72;5041752;28;20029;-58
2021/11/13 07:35:51;;;;;;;11.02;5.93;;;;;;;5.78;89.69;97963.53;5041342;28;20033;-59
2021/11/13 07:38:16;;;;;;;13.80;7.57;;;;;;;5.83;87.89;97963.44;5057413;28;20043;-60
2021/11/13 07:40:41;;;;;;;12.48;7.13;;;;;;;5.73;90.33;97965.34;5039638;28;20063;-58
2021/11/13 07:43:07;;;;;;;14.73;7.78;;;;;;;5.73;88.95;97960.19;5042125;28;20021;-58
2021/11/13 07:45:33;;;;;;;17.15;7.10;;;;;;;5.84;90.21;97963.38;5041201;28;20069;-60
2021/11/13 07:47:59;;;;;;;13.45;7.65;;;;;;;5.41;87.87;97962.56;5040448;28;20044;-59
2021/11/13 07:50:25;;;;;;;11.90;7.03;;;;;;;5.64;89.06;97968.16;5038909;28;20037;-60
2021/11/13 07:52:50;;;;;;;12.20;6.85;;;;;;;5.62;90.01;97970.75;5041401;28;20586;-59
2021/11/13 07:55:17;;;;;;;13.10;6.80;;;;;;;5.34;88.61;97971.34;5040946;28;20025;-60
2021/11/13 07:57:44;;;;;;;12.55;6.90;;;;;;;5.75;87.89;97966.16;5041667;28;20044;-60
2021/11/13 08:00:12;;;;;;;13.50;7.20;;;;;;;5.96;86.88;97970.06;5040696;28;20490;-60
2021/11/13 08:02:38;;;;;;;11.85;6.93;;;;;;;5.98;85.50;97968.28;5038851;28;20047;-60
2021/11/13 08:05:04;;;;;;;11.45;6.85;;;;;;;5.65;86.46;97975.03;5041335;28;20037;-59
2021/11/13 08:07:29;;;;;;;13.10;7.10;;;;;;;6.39;84.63;97973.38;5040580;28;20143;-60
2021/11/13 08:09:54;;;;;;;12.07;7.20;;;;;;;5.82;87.20;97966.91;5040932;28;20020;-59
2021/11/13 08:12:20;;;;;;;11.80;6.60;;;;;;;5.66;85.24;97961.19;5037202;28;20110;-60
2021/11/13 08:14:45;;;;;;;12.70;6.97;;;;;;;6.03;87.10;97975.94;5041668;28;20021;-58
2021/11/13 08:17:12;;;;;;;11.85;7.45;;;;;;;6.26;83.39;97989.19;5040378;28;20041;-60
2021/11/13 08:19:37;;;;;;;13.23;7.63;;;;;;;6.51;85.21;97989.47;5041305;28;20135;-58
2021/11/13 08:22:03;;;;;;;12.52;7.78;;;;;;;6.29;84.86;97983.94;5038015;28;20051;-59
2021/11/13 08:24:29;;;;;;;15.90;7.38;;;;;;;6.10;87.39;97982.66;5040740;28;20028;-60
2021/11/13 08:26:54;;;;;;;15.38;8.07;;;;;;;6.41;85.25;97976.75;5040464;28;21032;-58
2021/11/13 08:29:20;;;;;;;12.38;6.72;;;;;;;6.31;86.64;97982.16;5041362;28;20036;-58
2021/11/13 08:31:45;;;;;;;13.10;7.13;;;;;;;5.85;86.05;97983.22;5039290;28;20044;-59
2021/11/13 08:34:11;;;;;;;13.48;6.70;;;;;;;5.93;84.89;97989.06;5041325;28;20111;-58
2021/11/13 08:36:36;;;;;;;12.82;7.07;;;;;;;6.01;86.95;97980.28;5039933;28;20067;-58
2021/11/13 08:39:07;;;;;;;11.98;7.30;;;;;;;6.33;87.43;97980.38;5041085;28;20135;-59
2021/11/13 08:41:32;;;;;;;13.48;7.30;;;;;;;6.52;90.78;97979.94;5038871;28;20652;-59
2021/11/13 08:43:58;;;;;;;10.90;6.47;;;;;;;6.63;84.33;97984.84;5041184;28;20051;-58
2021/11/13 08:46:23;;;;;;;13.05;7.38;;;;;;;6.41;85.67;97982.78;5040053;28;20129;-57
2021/11/13 08:48:49;;;;;;;10.93;6.68;;;;;;;6.87;85.61;97980.78;5039668;28;20056;-59
2021/11/13 08:51:14;;;;;;;13.95;7.60;;;;;;;6.29;83.75;97985.69;5038735;28;20744;-57
2021/11/13 08:53:40;;;;;;;15.45;6.65;;;;;;;6.48;84.78;97980.91;5041048;28;20024;-57
2021/11/13 08:56:06;;;;;;;11.25;6.30;;;;;;;6.00;85.90;97981.19;5040174;28;20025;-59
2021/11/13 08:58:32;;;;;;;12.07;6.97;;;;;;;6.41;84.95;97976.75;5041100;28;20033;-58
2021/11/13 09:01:01;;;;;;;12.00;7.07;;;;;;;6.26;84.78;97978.84;5038550;28;20087;-57
2021/11/13 09:03:31;;;;;;;11.10;6.47;;;;;;;6.21;85.39;97972.91;5040602;28;20930;-56
2021/11/13 09:05:58;;;;;;;10.80;6.47;;;;;;;6.11;86.55;97968.84;5039482;28;20126;-57
2021/11/13 09:08:25;;;;;;;11.00;6.00;;;;;;;6.41;89.36;97971.59;5040388;28;20530;-58
2021/11/13 09:10:51;;;;;;;11.55;7.10;;;;;;;6.43;84.15;97974.97;5038298;28;20029;-62
2021/11/13 09:13:19;;;;;;;13.25;7.05;;;;;;;6.34;86.71;97974.34;5040464;28;20029;-60
2021/11/13 09:15:45;;;;;;;11.93;6.90;;;;;;;6.46;83.90;97974.91;5039770;28;20037;-57
2021/11/13 09:18:10;;;;;;;12.77;7.20;;;;;;;6.87;85.24;97985.97;5040450;28;20029;-59
2021/11/13 09:20:37;;;;;;;11.60;7.20;;;;;;;6.67;84.16;97989.94;5038689;28;20405;-58
2021/11/13 09:23:04;;;;;;;11.25;6.82;;;;;;;6.36;83.96;97985.50;5040024;28;20098;-58
2021/11/13 09:25:31;;;;;;;12.52;7.22;;;;;;;6.48;86.86;97983.50;5039950;28;20682;-58
2021/11/13 09:27:58;;;;;;;13.25;7.47;;;;;;;6.43;86.19;97981.00;5040209;28;20028;-59
2021/11/13 09:30:29;;;;;;;15.93;8.23;;;;;;;6.52;83.99;97987.72;5032104;28;20033;-60
2021/11/13 09:32:55;;;;;;;12.10;7.18;;;;;;;7.12;83.89;97981.81;5035569;28;20017;-60
2021/11/13 09:35:21;;;;;;;14.40;6.47;;;;;;;8.29;98.54;97988.75;5036385;28;20025;-59
2021/11/13 09:37:47;;;;;;;14.68;7.88;;;;;;;7.58;88.03;97994.41;5038932;28;20603;-57
2021/11/13 09:40:16;;;;;;;12.57;7.05;;;;;;;8.18;85.18;98000.38;5039938;28;20037;-58
2021/11/13 09:42:47;;;;;;;12.20;7.10;;;;;;;7.20;87.46;97996.31;5039424;28;20135;-61
2021/11/13 09:45:13;;;;;;;12.00;7.00;;;;;;;7.67;84.77;98000.16;5039847;28;20051;-59
2021/11/13 09:47:40;;;;;;;12.65;6.90;;;;;;;7.09;81.98;97992.25;5041046;28;20033;-60
2021/11/13 09:50:07;;;;;;;14.48;7.97;;;;;;;7.77;81.69;97995.53;5040347;28;20029;-59
2021/11/13 09:52:32;;;;;;;12.20;6.82;;;;;;;7.81;81.65;97989.38;5040049;28;20047;-59
2021/11/13 09:54:59;;;;;;;14.18;7.30;;;;;;;7.84;81.83;97997.06;5040334;28;20029;-60
2021/11/13 09:57:25;;;;;;;16.33;8.50;;;;;;;7.45;80.27;97993.91;5039759;28;20044;-59
2021/11/13 09:59:51;;;;;;;15.00;7.75;;;;;;;6.96;81.98;97990.91;5039758;28;20024;-59
2021/11/13 10:02:16;;;;;;;13.95;7.18;;;;;;;7.22;82.34;97986.75;5039400;28;20033;-60
2021/11/13 10:04:42;;;;;;;14.07;7.57;;;;;;;7.75;81.07;97988.72;5041965;28;20024;-58
2021/11/13 10:07:08;;;;;;;13.35;8.27;;;;;;;7.29;82.08;97980.50;5038913;28;20151;-59
2021/11/13 10:09:33;;;;;;;13.88;8.05;;;;;;;7.04;82.96;97973.41;5038736;28;20809;-58
2021/11/13 10:11:58;;;;;;;15.52;8.95;;;;;;;6.93;83.22;97972.84;5037909;28;20033;-59
2021/11/13 10:14:37;;;;;;;15.15;8.57;;;;;;;7.21;81.65;97970.34;5038920;28;20787;-59
2021/11/13 10:17:20;;;;;;;15.02;7.80;;;;;;;7.26;83.68;97962.41;5038423;28;20083;-59
2021/11/13 10:19:46;;;;;;;16.38;8.32;;;;;;;7.24;81.37;97961.63;5039713;28;20107;-58
2021/11/13 10:22:12;;;;;;;15.25;8.50;;;;;;;7.46;81.49;97964.44;5037741;28;20029;-59
2021/11/13 10:24:43;;;;;;;15.02;7.97;;;;;;;7.25;82.39;97963.31;5038522;28;20636;-59
2021/11/13 10:27:10;;;;;;;20.75;10.35;;;;;;;7.60;81.80;97961.47;5038923;28;20048;-58
2021/11/13 10:29:37;;;;;;;18.35;10.00;;;;;;;7.53;81.42;97961.66;5039250;28;20021;-60
2021/11/13 10:32:12;;;;;;;14.98;8.60;;;;;;;7.61;80.95;97964.00;5039263;28;20036;-59
2021/11/13 10:34:41;;;;;;;16.70;9.00;;;;;;;7.47;80.94;97961.81;5039644;28;20025;-58
2021/11/13 10:37:20;;;;;;;16.58;9.02;;;;;;;8.28;80.91;97955.84;5039418;28;20041;-59
2021/11/13 10:39:48;;;;;;;14.40;8.88;;;;;;;7.99;78.55;97954.19;5039045;28;20053;-60
2021/11/13 10:42:22;;;;;;;15.80;9.00;;;;;;;8.04;78.41;97946.25;5038368;28;20041;-59
2021/11/13 10:44:52;;;;;;;12.25;7.32;;;;;;;8.62;77.57;97951.31;5038780;28;20023;-58
2021/11/13 10:47:28;;;;;;;15.80;9.20;;;;;;;7.67;77.65;97944.81;5039097;28;20037;-58
2021/11/13 10:49:53;;;;;;;16.35;9.68;;;;;;;7.43;80.48;97944.63;5038183;28;20131;-59
2021/11/13 10:52:20;;;;;;;18.10;10.10;;;;;;;6.40;83.86;97950.00;5038227;28;20049;-58
2021/11/13 10:54:49;;;;;;;15.50;8.55;;;;;;;7.35;88.33;97951.78;5039140;28;20576;-61
2021/11/13 10:57:26;;;;;;;26.30;14.95;;;;;;;7.71;88.59;97933.44;5042372;28;20071;-61
2021/11/13 10:59:53;;;;;;;17.58;9.35;;;;;;;7.74;88.84;97943.72;5042316;28;20023;-60
2021/11/13 11:02:19;;;;;;;18.23;9.48;;;;;;;7.88;84.63;97941.56;5040793;28;20033;-60
2021/11/13 11:04:46;;;;;;;16.60;9.30;;;;;;;7.80;89.39;97948.72;5043159;28;20505;-58
2021/11/13 11:07:23;;;;;;;14.43;8.43;;;;;;;7.78;91.18;97940.13;5041586;28;20037;-60
2021/11/13 11:10:10;;;;;;;19.88;9.90;;;;;;;7.78;89.25;97923.72;5043305;28;20037;-58
2021/11/13 11:12:38;;;;;;;18.65;10.20;;;;;;;7.50;91.81;97920.19;5044461;28;20097;-60
2021/11/13 11:15:08;;;;;;;17.60;9.85;;;;;;;7.84;92.84;97920.91;5041739;28;20029;-61
2021/11/13 11:17:34;;;;;;;15.98;9.32;;;;;;;7.65;92.07;97923.25;5041130;28;20083;-62
2021/11/13 11:20:13;;;;;;;21.27;10.15;;;;;;;7.67;91.58;97916.25;5040986;28;20114;-61
2021/11/13 11:22:39;;;;;;;18.25;9.90;;;;;;;8.06;93.18;97913.28;5038805;28;20041;-57
2021/11/13 11:25:12;;;;;;;17.85;10.10;;;;;;;7.88;91.38;97913.00;5044587;28;20036;-57
2021/11/13 11:27:44;;;;;;;16.70;9.65;;;;;;;8.36;89.79;97908.81;5051410;28;20037;-56
2021/11/13 11:30:12;;;;;;;17.00;9.20;;;;;;;8.32;90.76;97924.59;5049010;28;20032;-57
2021/11/13 11:32:44;;;;;;;16.10;9.68;;;;;;;8.21;89.18;97917.13;5049293;28;20339;-55